Time;durP1;ratioP1;P1;durP2;ratioP2;P2;SDS_P1;SDS_P2;PMS_P1;PMS_P2;Temp;Humidity;BMP_temperature;BMP_pressure;BME280_temperature;BME280_humidity;BME280_pressure;Samples;Min_cycle;Max_cycle;Signal;HPM_P1;HPM_P2
2023/04/28 00:01:15;;;;;;;24.63;17.63;;;12.00;99.90;;;;;;5119836;27;20051;-74
2023/04/28 00:03:41;;;;;;;28.73;17.10;;;12.00;99.90;;;;;;5129400;27;20054;-73
2023/04/28 00:06:07;;;;;;;27.88;16.80;;;12.10;99.90;;;;;;5138342;27;20031;-73
2023/04/28 00:08:33;;;;;;;32.92;18.77;;;12.20;99.90;;;;;;5133397;27;20099;-73
2023/04/28 00:10:59;;;;;;;26.35;17.77;;;12.20;99.90;;;;;;5134357;27;20115;-73
2023/04/28 00:13:25;;;;;;;32.28;18.35;;;11.90;99.90;;;;;;5127008;27;20099;-73
2023/04/28 00:15:51;;;;;;;29.17;18.42;;;12.00;99.90;;;;;;5129685;27;20026;-74
2023/04/28 00:18:18;;;;;;;28.58;16.77;;;12.10;99.90;;;;;;5128735;27;20100;-74
2023/04/28 00:20:44;;;;;;;24.90;16.92;;;12.10;99.90;;;;;;5134872;27;20080;-73
2023/04/28 00:23:10;;;;;;;25.63;16.13;;;12.00;99.90;;;;;;5123976;27;20044;-73
2023/04/28 00:25:36;;;;;;;29.83;18.05;;;12.10;99.90;;;;;;5127753;27;20027;-73
2023/04/28 00:28:02;;;;;;;26.35;17.67;;;12.10;99.90;;;;;;5128716;27;20026;-74
2023/04/28 00:30:29;;;;;;;27.00;16.67;;;12.00;99.90;;;;;;5130882;27;20468;-74
2023/04/28 00:32:55;;;;;;;28.38;17.85;;;12.00;99.90;;;;;;5129154;27;20370;-74
2023/04/28 00:35:21;;;;;;;30.73;18.05;;;12.00;99.90;;;;;;5127027;27;20103;-73
2023/04/28 00:37:47;;;;;;;26.00;17.48;;;12.00;99.90;;;;;;5126381;27;20039;-73
2023/04/28 00:40:13;;;;;;;36.00;18.38;;;12.10;99.90;;;;;;5125969;27;20483;-74
2023/04/28 00:42:39;;;;;;;28.15;17.60;;;12.20;99.90;;;;;;5124372;27;20062;-73
2023/04/28 00:45:06;;;;;;;29.23;19.50;;;12.20;99.90;;;;;;5130069;27;20082;-73
2023/04/28 00:47:36;;;;;;;31.27;19.50;;;12.10;99.90;;;;;;5121727;27;20019;-73
2023/04/28 00:50:05;;;;;;;29.65;19.05;;;12.20;99.90;;;;;;5125041;27;20062;-72
2023/04/28 00:52:31;;;;;;;31.80;18.63;;;12.00;99.90;;;;;;5122450;27;20019;-73
2023/04/28 00:54:57;;;;;;;30.35;18.83;;;11.70;99.90;;;;;;5120184;27;20489;-72
2023/04/28 00:57:22;;;;;;;35.10;19.77;;;11.80;99.90;;;;;;5121732;27;20028;-72
2023/04/28 00:59:49;;;;;;;31.67;18.85;;;11.90;99.90;;;;;;5124026;27;20035;-72
2023/04/28 01:02:18;;;;;;;27.50;19.58;;;11.90;99.90;;;;;;5123085;27;20068;-72
2023/04/28 01:04:45;;;;;;;27.05;18.92;;;11.70;99.90;;;;;;5120705;27;20047;-72
2023/04/28 01:07:11;;;;;;;31.48;17.85;;;11.80;99.90;;;;;;5129646;27;20062;-72
2023/04/28 01:09:37;;;;;;;31.10;17.85;;;11.80;99.90;;;;;;5120523;27;20059;-72
2023/04/28 01:12:03;;;;;;;27.25;18.17;;;11.70;99.90;;;;;;5122346;27;20100;-72
2023/04/28 01:14:28;;;;;;;30.95;18.27;;;11.80;99.90;;;;;;5125039;27;20050;-72
2023/04/28 01:16:55;;;;;;;30.70;18.67;;;11.90;99.90;;;;;;5126822;27;20019;-72
2023/04/28 01:19:22;;;;;;;30.30;17.80;;;11.80;99.90;;;;;;5123492;27;20038;-72
2023/04/28 01:21:51;;;;;;;26.50;17.90;;;11.80;99.90;;;;;;5117384;27;20048;-72
2023/04/28 01:24:17;;;;;;;30.98;19.15;;;11.80;99.90;;;;;;5125944;27;20103;-71
2023/04/28 01:26:43;;;;;;;29.92;18.58;;;11.80;99.90;;;;;;5116570;27;20032;-72
2023/04/28 01:29:09;;;;;;;31.52;18.95;;;11.90;99.90;;;;;;5128497;27;20664;-72
2023/04/28 01:31:35;;;;;;;27.88;17.70;;;11.90;99.90;;;;;;5127672;27;20110;-72
2023/04/28 01:34:00;;;;;;;32.42;18.85;;;11.70;99.90;;;;;;5124875;27;20395;-72
2023/04/28 01:36:27;;;;;;;32.38;19.13;;;11.80;99.90;;;;;;5123981;27;20027;-71
2023/04/28 01:38:53;;;;;;;28.90;18.23;;;11.80;99.90;;;;;;5118072;27;20080;-71
2023/04/28 01:41:20;;;;;;;34.53;20.38;;;11.90;99.90;;;;;;5120933;27;20027;-72
2023/04/28 01:43:45;;;;;;;27.63;16.60;;;11.90;99.90;;;;;;5121978;27;20031;-71
2023/04/28 01:46:11;;;;;;;29.45;18.52;;;11.90;99.90;;;;;;5124164;27;20374;-72
2023/04/28 01:48:37;;;;;;;30.58;19.30;;;11.80;99.90;;;;;;5124248;27;20435;-72
2023/04/28 01:51:02;;;;;;;30.95;18.70;;;11.80;99.90;;;;;;5122624;27;20094;-72
2023/04/28 01:53:28;;;;;;;29.77;17.63;;;11.90;99.90;;;;;;5118407;27;20045;-72
2023/04/28 01:55:54;;;;;;;29.77;17.98;;;11.90;99.90;;;;;;5130115;27;20039;-71
2023/04/28 01:58:19;;;;;;;31.50;19.33;;;11.90;99.90;;;;;;5125267;27;20529;-72
2023/04/28 02:00:46;;;;;;;32.05;19.20;;;11.90;99.90;;;;;;5122270;27;20027;-72
2023/04/28 02:03:12;;;;;;;32.00;18.30;;;11.90;99.90;;;;;;5121472;27;20104;-72
2023/04/28 02:05:37;;;;;;;30.60;19.00;;;12.00;99.90;;;;;;5120228;27;20037;-71
2023/04/28 02:08:03;;;;;;;30.75;18.92;;;12.10;99.90;;;;;;5122601;27;20062;-72
2023/04/28 02:10:29;;;;;;;29.08;18.13;;;12.00;99.90;;;;;;5116971;27;20031;-72
2023/04/28 02:12:55;;;;;;;35.03;20.85;;;12.00;99.90;;;;;;5126621;27;20024;-72
2023/04/28 02:15:21;;;;;;;30.65;19.52;;;12.00;99.90;;;;;;5121647;27;20066;-71
2023/04/28 02:17:46;;;;;;;31.30;19.33;;;12.00;99.90;;;;;;5119381;27;20027;-72
2023/04/28 02:20:15;;;;;;;31.08;18.20;;;11.90;99.90;;;;;;5123050;27;20394;-71
2023/04/28 02:22:41;;;;;;;33.15;18.75;;;12.00;99.90;;;;;;5130935;27;20019;-72
2023/04/28 02:25:07;;;;;;;31.67;19.65;;;11.90;99.90;;;;;;5124406;27;20023;-72
2023/04/28 02:27:37;;;;;;;27.05;18.35;;;12.00;99.90;;;;;;5128435;27;20015;-71
2023/04/28 02:30:06;;;;;;;26.23;17.77;;;11.90;99.90;;;;;;5121748;27;20023;-72
2023/04/28 02:32:31;;;;;;;30.38;18.80;;;11.80;99.90;;;;;;5124205;27;20536;-72
2023/04/28 02:34:57;;;;;;;29.70;18.77;;;11.80;99.90;;;;;;5119127;27;20027;-72
2023/04/28 02:37:23;;;;;;;36.05;22.67;;;11.70;99.90;;;;;;5126206;27;20361;-72
2023/04/28 02:39:49;;;;;;;27.17;18.95;;;11.60;99.90;;;;;;5119071;27;20040;-71
2023/04/28 02:42:15;;;;;;;31.95;20.30;;;11.50;99.90;;;;;;5124863;27;20100;-72
2023/04/28 02:44:41;;;;;;;31.55;19.27;;;11.50;99.90;;;;;;5120159;27;20104;-71
2023/04/28 02:47:06;;;;;;;27.95;18.40;;;11.50;99.90;;;;;;5119768;27;20605;-72
2023/04/28 02:49:32;;;;;;;31.65;19.52;;;11.50;99.90;;;;;;5116362;27;20035;-72
2023/04/28 02:51:58;;;;;;;37.78;19.30;;;11.50;99.90;;;;;;5121047;27;20015;-72
2023/04/28 02:54:27;;;;;;;31.10;18.83;;;11.30;99.90;;;;;;5122609;27;20028;-72
2023/04/28 02:56:56;;;;;;;30.25;17.77;;;11.30;99.90;;;;;;5122986;27;20054;-71
2023/04/28 02:59:23;;;;;;;27.58;19.40;;;11.30;99.90;;;;;;5125079;27;20058;-72
2023/04/28 03:01:50;;;;;;;31.75;18.92;;;11.30;99.90;;;;;;5126120;27;20476;-71
2023/04/28 03:04:16;;;;;;;24.55;16.55;;;11.30;99.90;;;;;;5130240;27;20019;-72
2023/04/28 03:06:42;;;;;;;29.10;18.08;;;11.30;99.90;;;;;;5123788;27;20081;-72
2023/04/28 03:09:09;;;;;;;32.42;19.83;;;11.40;99.90;;;;;;5119046;27;20015;-72
2023/04/28 03:11:35;;;;;;;31.65;19.73;;;11.50;99.90;;;;;;5129273;27;20031;-72
2023/04/28 03:14:01;;;;;;;30.20;18.63;;;11.60;99.90;;;;;;5118337;27;20020;-71
2023/04/28 03:16:27;;;;;;;32.03;19.75;;;11.70;99.90;;;;;;5122563;28;20038;-71
2023/04/28 03:18:52;;;;;;;30.17;18.55;;;11.70;99.90;;;;;;5124795;27;20034;-72
2023/04/28 03:21:18;;;;;;;29.55;18.95;;;11.70;99.90;;;;;;5122482;28;20403;-72
2023/04/28 03:23:44;;;;;;;30.17;18.52;;;11.80;99.90;;;;;;5119820;27;20023;-72
2023/04/28 03:26:10;;;;;;;30.35;18.27;;;11.80;99.90;;;;;;5122946;28;20022;-72
2023/04/28 03:28:36;;;;;;;29.85;19.52;;;11.80;99.90;;;;;;5121147;27;20020;-71
2023/04/28 03:31:02;;;;;;;27.60;18.50;;;11.80;99.90;;;;;;5123671;27;20436;-71
2023/04/28 03:33:28;;;;;;;29.02;18.67;;;11.80;99.90;;;;;;5119642;27;20051;-71
2023/04/28 03:35:53;;;;;;;30.73;18.42;;;11.80;99.90;;;;;;5121268;28;20458;-71
2023/04/28 03:38:20;;;;;;;34.88;20.13;;;11.70;99.90;;;;;;5127198;27;20031;-72
2023/04/28 03:40:45;;;;;;;30.65;20.00;;;11.60;99.90;;;;;;5119671;28;20067;-71
2023/04/28 03:43:11;;;;;;;34.72;17.25;;;11.70;99.90;;;;;;5122661;28;20423;-72
2023/04/28 03:45:37;;;;;;;27.38;17.80;;;11.70;99.90;;;;;;5118409;28;20106;-71
2023/04/28 03:48:03;;;;;;;29.75;18.52;;;11.70;99.90;;;;;;5121467;27;20102;-72
2023/04/28 03:50:29;;;;;;;29.50;18.75;;;11.80;99.90;;;;;;5123757;27;20091;-72
2023/04/28 03:52:55;;;;;;;26.67;18.48;;;11.80;99.90;;;;;;5128804;28;20527;-72
2023/04/28 03:55:21;;;;;;;29.30;17.65;;;11.90;99.90;;;;;;5124615;28;20027;-72
2023/04/28 03:57:47;;;;;;;29.55;18.98;;;11.80;99.90;;;;;;5119073;27;20031;-72
2023/04/28 04:00:13;;;;;;;30.15;20.20;;;11.80;99.90;;;;;;5120140;28;20483;-72
2023/04/28 04:02:38;;;;;;;29.23;20.65;;;11.80;99.90;;;;;;5122517;27;21733;-71
2023/04/28 04:05:05;;;;;;;32.78;19.65;;;11.80;99.90;;;;;;5118051;28;20487;-71
2023/04/28 04:07:30;;;;;;;28.05;20.05;;;11.90;99.90;;;;;;5123572;28;20031;-72
2023/04/28 04:09:56;;;;;;;27.63;19.35;;;11.90;99.90;;;;;;5121720;27;20015;-72
2023/04/28 04:12:22;;;;;;;28.90;18.45;;;11.90;99.90;;;;;;5122209;27;20488;-72
2023/04/28 04:14:47;;;;;;;27.65;19.60;;;11.70;99.90;;;;;;5121971;27;20027;-72
2023/04/28 04:17:13;;;;;;;31.90;20.77;;;11.70;99.90;;;;;;5127296;27;20111;-72
2023/04/28 04:19:38;;;;;;;29.90;20.42;;;11.80;99.90;;;;;;5123694;27;20488;-72
2023/04/28 04:22:04;;;;;;;35.22;19.75;;;11.80;99.90;;;;;;5122694;27;20022;-72
2023/04/28 04:24:33;;;;;;;34.53;18.77;;;11.60;99.90;;;;;;5119522;27;20536;-72
2023/04/28 04:26:59;;;;;;;35.75;20.50;;;11.60;99.90;;;;;;5123295;27;20027;-72
2023/04/28 04:29:25;;;;;;;36.45;21.85;;;11.60;99.90;;;;;;5120710;27;20026;-72
2023/04/28 04:31:50;;;;;;;36.45;22.02;;;11.70;99.90;;;;;;5124344;27;20114;-72
2023/04/28 04:34:16;;;;;;;34.30;20.15;;;11.70;99.90;;;;;;5124165;27;20031;-72
2023/04/28 04:36:43;;;;;;;32.63;20.77;;;11.80;99.90;;;;;;5121564;27;20030;-72
2023/04/28 04:39:08;;;;;;;32.33;20.33;;;11.70;99.90;;;;;;5122087;27;20025;-72
2023/04/28 04:41:34;;;;;;;37.20;21.48;;;11.60;99.90;;;;;;5119720;27;20030;-72
2023/04/28 04:44:00;;;;;;;32.13;21.05;;;11.70;99.90;;;;;;5124379;27;20384;-72
2023/04/28 04:46:26;;;;;;;30.55;20.15;;;11.80;99.90;;;;;;5127934;27;20081;-73
2023/04/28 04:48:51;;;;;;;29.35;19.80;;;11.80;99.90;;;;;;5119796;27;20015;-72
2023/04/28 04:51:17;;;;;;;32.60;19.77;;;11.90;99.90;;;;;;5118125;27;21180;-72
2023/04/28 04:53:43;;;;;;;32.63;19.65;;;11.90;99.90;;;;;;5124119;27;20016;-72
2023/04/28 04:56:08;;;;;;;32.55;21.23;;;11.90;99.90;;;;;;5123336;27;20031;-71
2023/04/28 04:58:34;;;;;;;29.25;20.35;;;11.90;99.90;;;;;;5125821;27;20531;-71
2023/04/28 05:01:00;;;;;;;34.60;21.08;;;11.90;99.90;;;;;;5124230;27;20031;-71
2023/04/28 05:03:26;;;;;;;30.90;21.55;;;11.80;99.90;;;;;;5123377;27;20023;-71
2023/04/28 05:05:51;;;;;;;31.83;21.63;;;11.80;99.90;;;;;;5125350;27;20081;-71
2023/04/28 05:08:17;;;;;;;29.95;21.10;;;11.90;99.90;;;;;;5124730;27;20479;-71
2023/04/28 05:10:43;;;;;;;31.83;22.35;;;11.80;99.90;;;;;;5120670;27;20031;-71
2023/04/28 05:13:08;;;;;;;34.10;23.30;;;11.90;99.90;;;;;;5122288;27;20033;-71
2023/04/28 05:15:34;;;;;;;36.35;24.27;;;11.90;99.90;;;;;;5121381;27;20024;-71
2023/04/28 05:18:05;;;;;;;37.25;23.55;;;12.00;99.90;;;;;;5122847;27;20023;-72
2023/04/28 05:20:31;;;;;;;34.67;21.85;;;11.90;99.90;;;;;;5129088;27;20028;-72
2023/04/28 05:22:56;;;;;;;36.78;22.90;;;12.00;99.90;;;;;;5121393;27;20027;-71
2023/04/28 05:25:22;;;;;;;35.38;22.48;;;11.90;99.90;;;;;;5118623;27;20023;-71
2023/04/28 05:27:47;;;;;;;35.65;22.63;;;11.90;99.90;;;;;;5123752;27;20392;-71
2023/04/28 05:30:14;;;;;;;38.53;23.13;;;11.90;99.90;;;;;;5126692;27;20035;-71
2023/04/28 05:32:40;;;;;;;33.92;22.85;;;11.90;99.90;;;;;;5127397;27;20016;-72
2023/04/28 05:35:06;;;;;;;34.78;22.88;;;11.90;99.90;;;;;;5120557;27;20054;-71
2023/04/28 05:37:32;;;;;;;39.20;24.60;;;11.90;99.90;;;;;;5129467;27;20023;-73
2023/04/28 05:39:57;;;;;;;41.55;25.17;;;11.90;99.90;;;;;;5128553;27;20035;-73
2023/04/28 05:42:23;;;;;;;37.80;24.15;;;11.90;99.90;;;;;;5124935;27;20102;-73
2023/04/28 05:44:49;;;;;;;35.17;22.80;;;11.90;99.90;;;;;;5122834;27;20486;-73
2023/04/28 05:47:14;;;;;;;42.45;24.83;;;11.90;99.90;;;;;;5130091;27;20468;-73
2023/04/28 05:49:40;;;;;;;41.58;24.27;;;12.00;99.90;;;;;;5131486;27;20027;-73
2023/04/28 05:52:06;;;;;;;36.92;23.25;;;11.90;99.90;;;;;;5123013;27;20016;-74
2023/04/28 05:54:33;;;;;;;43.65;24.35;;;12.00;99.90;;;;;;5122861;27;20495;-73
2023/04/28 05:57:00;;;;;;;37.67;23.10;;;12.10;99.90;;;;;;5124632;27;20015;-73
2023/04/28 05:59:27;;;;;;;36.63;25.35;;;12.20;99.90;;;;;;5124265;27;20042;-72
2023/04/28 06:01:53;;;;;;;36.58;23.15;;;12.30;99.90;;;;;;5125580;27;20472;-72
2023/04/28 06:04:18;;;;;;;35.00;22.98;;;12.30;99.90;;;;;;5125660;27;20069;-72
2023/04/28 06:06:44;;;;;;;41.05;24.33;;;12.40;99.90;;;;;;5130479;27;20076;-72
2023/04/28 06:09:10;;;;;;;32.05;22.20;;;12.40;99.90;;;;;;5119630;27;20035;-71
2023/04/28 06:11:35;;;;;;;31.15;21.60;;;12.50;99.90;;;;;;5122348;27;20031;-72
2023/04/28 06:14:01;;;;;;;31.02;21.35;;;12.60;99.90;;;;;;5124303;27;20016;-71
2023/04/28 06:16:28;;;;;;;35.65;24.70;;;12.70;99.90;;;;;;5121110;27;20549;-71
2023/04/28 06:18:53;;;;;;;31.77;20.80;;;12.70;99.90;;;;;;5123846;27;20032;-71
2023/04/28 06:21:20;;;;;;;27.35;21.10;;;12.70;99.90;;;;;;5120453;27;20490;-73
2023/04/28 06:23:46;;;;;;;31.00;21.50;;;12.80;99.90;;;;;;5119709;27;20022;-73
2023/04/28 06:26:12;;;;;;;35.53;23.25;;;12.80;99.90;;;;;;5124368;27;20034;-74
2023/04/28 06:28:37;;;;;;;34.95;23.25;;;12.70;99.90;;;;;;5121071;27;20028;-73
2023/04/28 06:31:03;;;;;;;38.58;24.58;;;12.60;99.90;;;;;;5127586;27;20031;-73
2023/04/28 06:33:29;;;;;;;39.13;23.02;;;12.60;99.90;;;;;;5122207;27;20023;-73
2023/04/28 06:35:55;;;;;;;37.20;25.55;;;12.60;99.90;;;;;;5122192;27;20034;-73
2023/04/28 06:38:21;;;;;;;38.72;26.02;;;12.70;99.90;;;;;;5126003;27;20022;-74
2023/04/28 06:40:53;;;;;;;41.20;25.25;;;12.60;99.90;;;;;;5111955;28;20491;-73
2023/04/28 06:43:19;;;;;;;37.30;23.30;;;12.70;99.90;;;;;;5110928;27;20591;-73
2023/04/28 06:45:44;;;;;;;31.48;24.40;;;12.60;99.90;;;;;;5131632;27;20023;-73
2023/04/28 06:48:10;;;;;;;40.20;26.30;;;12.60;99.90;;;;;;5131639;27;20022;-74
2023/04/28 06:50:36;;;;;;;47.53;27.98;;;12.60;99.90;;;;;;5132795;27;20023;-74
2023/04/28 06:53:02;;;;;;;43.13;28.17;;;12.60;99.90;;;;;;5131636;27;20031;-74
2023/04/28 06:55:28;;;;;;;49.13;30.88;;;12.70;99.90;;;;;;5133136;27;20032;-73
2023/04/28 06:57:53;;;;;;;57.47;34.83;;;12.80;99.90;;;;;;5132034;27;20027;-73
2023/04/28 07:00:19;;;;;;;46.30;30.40;;;12.80;99.90;;;;;;5099629;27;20084;-73
2023/04/28 07:02:45;;;;;;;47.65;30.30;;;13.00;99.90;;;;;;5110944;27;20015;-73
2023/04/28 07:05:11;;;;;;;43.22;30.45;;;13.00;99.90;;;;;;5117035;27;20038;-73
2023/04/28 07:07:37;;;;;;;40.15;27.77;;;13.00;99.90;;;;;;5116801;27;20045;-73
2023/04/28 07:10:04;;;;;;;38.30;25.33;;;13.00;99.90;;;;;;5116685;27;20019;-73
2023/04/28 07:12:30;;;;;;;38.80;25.85;;;13.00;99.90;;;;;;5111789;27;20046;-73
2023/04/28 07:14:56;;;;;;;43.08;28.33;;;13.00;99.90;;;;;;5121969;27;20023;-73
2023/04/28 07:17:22;;;;;;;38.63;28.25;;;13.10;99.90;;;;;;5122302;27;20019;-73
2023/04/28 07:19:49;;;;;;;41.55;27.38;;;13.10;99.90;;;;;;5115610;27;20071;-71
2023/04/28 07:22:16;;;;;;;40.60;27.65;;;13.10;99.90;;;;;;5110891;27;20062;-71
2023/04/28 07:24:41;;;;;;;41.08;28.05;;;13.20;99.90;;;;;;5113197;28;20027;-70
2023/04/28 07:27:07;;;;;;;42.40;29.90;;;13.20;99.90;;;;;;5117718;28;20019;-70
2023/04/28 07:29:34;;;;;;;40.55;28.88;;;13.30;99.90;;;;;;5114173;28;20088;-71
2023/04/28 07:32:01;;;;;;;38.50;28.75;;;13.40;99.90;;;;;;5115071;28;20032;-72
2023/04/28 07:34:27;;;;;;;43.00;28.40;;;13.40;99.90;;;;;;5120531;28;20029;-71
2023/04/28 07:36:53;;;;;;;38.67;26.65;;;13.50;99.90;;;;;;5118651;28;20023;-71
2023/04/28 07:39:19;;;;;;;43.10;27.10;;;13.50;99.90;;;;;;5114193;28;20510;-71
2023/04/28 07:41:45;;;;;;;41.42;26.63;;;13.50;99.90;;;;;;5115550;28;20035;-71
2023/04/28 07:44:10;;;;;;;43.13;29.63;;;13.50;99.90;;;;;;5115797;28;20425;-71
2023/04/28 07:46:36;;;;;;;49.58;32.10;;;13.60;99.90;;;;;;5121545;27;20015;-71
2023/04/28 07:49:03;;;;;;;67.15;38.92;;;13.60;99.90;;;;;;5134389;27;20102;-76
2023/04/28 07:51:30;;;;;;;42.00;30.00;;;13.70;99.90;;;;;;5134573;27;20023;-76
2023/04/28 07:53:56;;;;;;;49.80;33.85;;;13.80;99.90;;;;;;5136899;27;20024;-73
2023/04/28 07:56:22;;;;;;;45.40;31.08;;;13.90;99.90;;;;;;5136484;27;20102;-73
2023/04/28 07:58:47;;;;;;;52.97;32.17;;;13.80;99.90;;;;;;5135921;27;20065;-73
2023/04/28 08:01:13;;;;;;;40.97;29.15;;;14.00;99.90;;;;;;5135719;27;20058;-74
2023/04/28 08:03:39;;;;;;;54.80;33.35;;;14.00;99.90;;;;;;5134602;27;20482;-73
2023/04/28 08:06:06;;;;;;;53.78;32.90;;;14.10;99.90;;;;;;5131124;27;20047;-73
2023/04/28 08:08:32;;;;;;;47.00;31.30;;;14.10;99.90;;;;;;5133881;27;20060;-73
2023/04/28 08:10:58;;;;;;;42.95;30.65;;;14.10;99.90;;;;;;5128073;27;20035;-72
2023/04/28 08:13:24;;;;;;;51.03;30.98;;;14.20;99.90;;;;;;5132665;27;20028;-72
2023/04/28 08:15:49;;;;;;;44.13;30.10;;;14.30;99.90;;;;;;5133924;27;20030;-71
2023/04/28 08:18:15;;;;;;;47.00;31.88;;;14.40;99.90;;;;;;5134666;27;20015;-71
2023/04/28 08:20:41;;;;;;;52.42;33.80;;;14.40;99.90;;;;;;5134410;27;20039;-71
2023/04/28 08:23:08;;;;;;;46.10;31.55;;;14.40;99.90;;;;;;5134581;27;20016;-71
2023/04/28 08:25:34;;;;;;;45.95;32.53;;;14.40;99.90;;;;;;5134793;27;20507;-71
2023/04/28 08:28:02;;;;;;;45.63;30.52;;;14.40;99.90;;;;;;5136571;27;20080;-71
2023/04/28 08:30:28;;;;;;;46.95;31.15;;;14.50;99.90;;;;;;5130566;27;20379;-71
2023/04/28 08:32:53;;;;;;;48.38;30.63;;;14.60;99.90;;;;;;5115112;27;20028;-71
2023/04/28 08:35:19;;;;;;;40.40;26.48;;;14.70;99.90;;;;;;5128139;27;20122;-72
2023/04/28 08:37:48;;;;;;;43.35;28.65;;;14.70;99.90;;;;;;5132738;27;20423;-70
2023/04/28 08:40:14;;;;;;;39.85;26.98;;;14.80;99.90;;;;;;5124227;27;20039;-71
2023/04/28 08:42:40;;;;;;;44.20;27.52;;;14.90;99.90;;;;;;5123103;27;20030;-71
2023/04/28 08:45:07;;;;;;;35.97;26.73;;;14.90;99.90;;;;;;5125948;27;20039;-71
2023/04/28 08:47:35;;;;;;;46.08;28.13;;;15.00;99.90;;;;;;5127018;27;20023;-72
2023/04/28 08:50:06;;;;;;;35.63;27.75;;;15.00;99.90;;;;;;5116012;27;20027;-72
2023/04/28 08:52:32;;;;;;;37.72;26.70;;;15.10;99.90;;;;;;5111727;27;20043;-72
2023/04/28 08:55:08;;;;;;;42.13;28.23;;;15.10;99.90;;;;;;5130383;27;20031;-71
2023/04/28 08:57:54;;;;;;;45.33;31.83;;;15.10;99.90;;;;;;5133218;27;20060;-72
2023/04/28 09:00:20;;;;;;;33.13;24.20;;;15.10;99.90;;;;;;5133093;27;20031;-72
2023/04/28 09:02:46;;;;;;;35.92;24.92;;;15.20;99.90;;;;;;5135022;27;20021;-71
2023/04/28 09:05:13;;;;;;;35.72;23.88;;;15.20;99.90;;;;;;5134328;27;20048;-72
2023/04/28 09:07:39;;;;;;;33.10;24.08;;;15.30;99.90;;;;;;5135388;27;20080;-71
2023/04/28 09:10:25;;;;;;;40.38;26.55;;;15.30;99.90;;;;;;5127551;27;20035;-72
2023/04/28 09:12:53;;;;;;;33.92;24.77;;;15.30;99.90;;;;;;5135649;27;20020;-70
2023/04/28 09:15:33;;;;;;;35.72;26.27;;;15.30;99.90;;;;;;5132235;27;20062;-71
2023/04/28 09:18:01;;;;;;;37.05;25.73;;;15.30;99.90;;;;;;5133862;27;20019;-72
2023/04/28 09:20:29;;;;;;;36.03;25.88;;;15.30;99.90;;;;;;5133577;27;20074;-71
2023/04/28 09:23:11;;;;;;;37.92;25.77;;;15.40;99.90;;;;;;5134735;27;21446;-71
2023/04/28 09:25:36;;;;;;;33.22;25.13;;;15.50;99.90;;;;;;5133679;27;20046;-71
2023/04/28 09:28:21;;;;;;;35.30;27.10;;;15.50;99.90;;;;;;5133089;27;20471;-72
2023/04/28 09:30:47;;;;;;;34.33;25.63;;;15.50;99.90;;;;;;5132870;27;20023;-72
2023/04/28 09:33:14;;;;;;;33.42;26.02;;;15.60;99.90;;;;;;5133950;27;20053;-72
2023/04/28 09:35:42;;;;;;;35.88;28.40;;;15.60;99.90;;;;;;5133963;27;20171;-71
2023/04/28 09:38:08;;;;;;;35.70;27.73;;;15.70;99.90;;;;;;5133060;27;20011;-72
2023/04/28 09:40:56;;;;;;;37.25;26.90;;;15.70;99.90;;;;;;5133760;27;20111;-72
2023/04/28 09:43:30;;;;;;;33.33;27.20;;;15.60;99.90;;;;;;5134921;27;20068;-71
2023/04/28 09:45:57;;;;;;;38.65;24.85;;;15.70;99.90;;;;;;5133107;27;20111;-71
2023/04/28 09:48:35;;;;;;;47.67;22.92;;;15.70;99.90;;;;;;5130805;27;20019;-71
2023/04/28 09:51:03;;;;;;;29.52;23.90;;;15.60;99.90;;;;;;5133547;27;20111;-71
2023/04/28 09:53:29;;;;;;;30.08;22.52;;;15.70;99.90;;;;;;5132322;27;20031;-72
2023/04/28 09:55:57;;;;;;;33.65;23.40;;;15.70;99.90;;;;;;5129955;27;20023;-72
2023/04/28 09:58:24;;;;;;;28.45;23.10;;;15.70;99.90;;;;;;5133819;27;20491;-72
2023/04/28 10:01:00;;;;;;;32.95;27.27;;;15.80;99.90;;;;;;5134153;27;20559;-72
2023/04/28 10:03:30;;;;;;;29.83;24.27;;;15.90;99.90;;;;;;5133631;27;20027;-72
2023/04/28 10:05:57;;;;;;;33.70;26.05;;;16.00;99.90;;;;;;5128164;27;20091;-72
2023/04/28 10:08:24;;;;;;;29.70;23.88;;;16.10;99.90;;;;;;5131237;27;20015;-71
2023/04/28 10:10:53;;;;;;;26.50;21.92;;;16.20;99.90;;;;;;5133638;27;20038;-71
2023/04/28 10:13:23;;;;;;;25.38;22.40;;;16.20;99.90;;;;;;5133070;27;20031;-71
2023/04/28 10:15:50;;;;;;;26.58;21.20;;;16.20;99.90;;;;;;5132918;27;20024;-71
2023/04/28 10:18:17;;;;;;;26.13;21.58;;;16.20;99.90;;;;;;5131121;27;20102;-71
2023/04/28 10:20:48;;;;;;;22.27;18.30;;;16.20;99.90;;;;;;5129878;27;20042;-72
2023/04/28 10:23:36;;;;;;;22.00;17.90;;;16.10;99.90;;;;;;5143503;27;20034;-72
2023/04/28 10:26:04;;;;;;;26.45;17.48;;;16.10;99.90;;;;;;5112461;28;20036;-72
2023/04/28 10:28:30;;;;;;;21.98;18.02;;;16.20;99.90;;;;;;5121168;27;20493;-73
2023/04/28 10:31:13;;;;;;;29.10;17.70;;;16.20;99.90;;;;;;5131011;27;20024;-71
2023/04/28 10:33:39;;;;;;;;;;;16.40;99.90;;;;;;5130448;27;20072;-72
2023/04/28 10:36:06;;;;;;;24.30;17.52;;;16.50;99.90;;;;;;5130522;27;19918;-73
2023/04/28 10:38:32;;;;;;;16.52;14.82;;;16.60;99.90;;;;;;5132572;27;20030;-70
2023/04/28 10:41:02;;;;;;;17.23;15.45;;;16.60;99.90;;;;;;5132416;27;20027;-70
2023/04/28 10:43:40;;;;;;;16.70;13.63;;;16.60;99.90;;;;;;5133477;27;20091;-70
2023/04/28 10:46:10;;;;;;;16.08;14.38;;;16.60;99.90;;;;;;5131342;27;20019;-70
2023/04/28 10:48:51;;;;;;;16.20;14.45;;;16.60;99.90;;;;;;5134110;27;20068;-69
2023/04/28 10:51:17;;;;;;;16.85;14.73;;;16.60;99.90;;;;;;5133487;27;20023;-70
2023/04/28 10:53:49;;;;;;;16.38;14.68;;;16.60;99.90;;;;;;5132725;27;20490;-70
2023/04/28 10:56:24;;;;;;;;;;;16.60;99.90;;;;;;5133391;27;20087;-69
2023/04/28 10:58:51;;;;;;;14.90;13.30;;;16.70;99.90;;;;;;5117982;27;19904;-70
2023/04/28 11:01:23;;;;;;;16.85;13.70;;;16.90;99.90;;;;;;5112678;28;20107;-70
2023/04/28 11:03:58;;;;;;;15.65;12.95;;;17.10;99.90;;;;;;5113307;27;20065;-71
2023/04/28 11:06:30;;;;;;;15.93;11.07;;;17.30;99.90;;;;;;5112888;28;20066;-70
2023/04/28 11:09:02;;;;;;;15.35;10.68;;;17.50;99.90;;;;;;5124946;27;20019;-72
2023/04/28 11:11:29;;;;;;;13.25;9.90;;;17.70;99.90;;;;;;5133497;27;20062;-69
2023/04/28 11:14:33;;;;;;;9.60;8.60;;;17.80;99.90;;;;;;5133575;27;20023;-69
2023/04/28 11:17:03;;;;;;;9.95;7.15;;;17.80;99.90;;;;;;5069330;28;20024;-69
2023/04/28 11:19:32;;;;;;;6.20;5.35;;;17.90;99.90;;;;;;5069736;28;20036;-69
2023/04/28 11:22:00;;;;;;;5.97;4.90;;;17.80;99.90;;;;;;5079961;28;20107;-69
2023/04/28 11:24:30;;;;;;;4.47;4.18;;;17.70;99.90;;;;;;5111842;28;20019;-70
2023/04/28 11:26:57;;;;;;;6.10;3.90;;;17.70;99.90;;;;;;5131373;27;20468;-70
2023/04/28 11:29:38;;;;;;;5.88;3.85;;;17.70;99.90;;;;;;5133330;27;20110;-70
2023/04/28 11:32:07;;;;;;;2.88;2.67;;;17.60;99.90;;;;;;5132904;27;20483;-70
2023/04/28 11:34:35;;;;;;;4.38;2.67;;;17.60;99.90;;;;;;5132851;27;20398;-70
2023/04/28 11:37:01;;;;;;;4.28;3.00;;;17.60;99.90;;;;;;5133254;27;20034;-69
2023/04/28 11:39:29;;;;;;;4.53;2.92;;;17.70;99.90;;;;;;5131641;27;20684;-70
2023/04/28 11:41:57;;;;;;;2.22;2.03;;;17.80;99.90;;;;;;5130696;27;20447;-70
2023/04/28 11:44:25;;;;;;;4.40;1.90;;;17.70;99.90;;;;;;5132908;27;20022;-70
2023/04/28 11:46:56;;;;;;;2.75;1.92;;;17.70;99.90;;;;;;5130954;27;20045;-69
2023/04/28 11:49:29;;;;;;;2.90;1.80;;;17.70;99.90;;;;;;5132176;27;20027;-69
2023/04/28 11:51:58;;;;;;;1.90;1.60;;;17.80;99.90;;;;;;5131921;27;20023;-70
2023/04/28 11:54:27;;;;;;;1.83;1.73;;;17.80;99.90;;;;;;5133509;27;20019;-70
2023/04/28 11:56:55;;;;;;;2.33;1.70;;;17.70;99.90;;;;;;5130546;28;20047;-70
2023/04/28 11:59:26;;;;;;;1.80;1.70;;;17.80;99.90;;;;;;5132701;27;20031;-70
2023/04/28 12:01:54;;;;;;;3.47;1.80;;;17.70;99.90;;;;;;5133066;27;20050;-70
2023/04/28 12:04:49;;;;;;;3.28;2.00;;;17.70;99.90;;;;;;5132680;27;20019;-70
2023/04/28 12:07:17;;;;;;;1.67;1.15;;;17.70;99.90;;;;;;5107587;28;20576;-71
2023/04/28 12:10:02;;;;;;;1.60;1.50;;;17.80;99.90;;;;;;5110548;28;20024;-71
2023/04/28 12:12:32;;;;;;;3.35;3.05;;;17.80;99.90;;;;;;5111960;28;20035;-70
2023/04/28 12:15:06;;;;;;;3.55;2.97;;;17.90;99.90;;;;;;5110477;28;20016;-70
2023/04/28 12:17:37;;;;;;;2.38;1.98;;;17.90;99.90;;;;;;5112124;28;20023;-70
2023/04/28 12:20:34;;;;;;;1.43;1.33;;;18.00;99.90;;;;;;5119617;28;20484;-70
2023/04/28 12:22:59;;;;;;;2.75;2.55;;;18.00;99.90;;;;;;5133117;27;20280;-69
2023/04/28 12:25:25;;;;;;;4.90;4.30;;;18.00;99.90;;;;;;5132250;28;20084;-70
2023/04/28 12:28:06;;;;;;;2.92;2.17;;;18.20;99.90;;;;;;5132561;27;20055;-69
2023/04/28 12:30:35;;;;;;;2.85;2.65;;;18.40;99.90;;;;;;5131726;27;20019;-70
2023/04/28 12:33:00;;;;;;;2.42;2.22;;;18.40;99.90;;;;;;5136326;27;20081;-70